Terminal Aerodrome Forecast
Issued by NWS Austin/San Antonio, TX

Home | Current Version | Previous Version | Text Only | Print | Product List | Glossary On
Versions: 1 2 3 4 5 6 7 8 9 10 11 12 13 14 15 16 17 18 19 20 21 22 23 24 25
000
FTUS44 KEWX 201128
TAFDRT
TAF
KDRT 201128Z 2012/2112 12009KT 1SM BR OVC002
      TEMPO 2013/2016 1/2SM FG OVC002
     FM201700 13006KT 6SM BR BKN008
     FM201900 13008KT P6SM SKC
     FM210600 11006KT 2SM BR OVC004=

USA.gov is the U.S. government's official web portal to all federal, state and local government web resources and services.